METAR Data
IDs: Format: Raw Decoded Include TAF

Data at: 1338 UTC 14 Dec 2019

PAQH 140156Z AUTO 09007KT 10SM BKN065 OVC110 01/00 A2940 RMK AO2 RAE0058B19E36 SLP957 P0000 T00060000 FZRANO
PAQH 140056Z AUTO 13006KT 10SM -RA OVC075 01/01 A2941 RMK AO2 UPB33E40 SLP959 P0000 T00060006 FZRANO
PAQH 132356Z AUTO 15008KT 10SM -RA SCT021 OVC050 01/00 A2941 RMK AO2 UPB2258E23RAB23SNE2258 SLP959 P0000 60000 T00060000 10006 21006 51007 FZRANO
PAQH 132326Z AUTO 14006KT 10SM -RA SCT006 BKN019 OVC037 01/00 A2940 RMK AO2 UPB2258E23RAB23SNE2258 P0000 FZRANO
PAQH 132256Z AUTO 14005KT 6SM -SN BR OVC004 00/00 A2940 RMK AO2 UPE33SNB33 CIG 002V008 SLP956 P0000 T00000000 FZRANO
PAQH 132253Z AUTO 13006KT 3SM -SN BR OVC004 00/00 A2940 RMK AO2 UPE33SNB33 CIG 002V008 P0000 FZRANO
PAQH 132247Z AUTO 13005KT 1 1/4SM -SN BR OVC004 00/00 A2940 RMK AO2 UPE33SNB33 CIG 002V006 P0000 FZRANO
PAQH 132240Z AUTO 14005KT 3/4SM -SN BR OVC004 00/00 A2940 RMK AO2 UPE33SNB33 CIG 002V008 P0000 FZRANO
PAQH 132156Z AUTO 16006KT 1/4SM UP FG OVC001 00/M01 A2939 RMK AO2 UPB55 SLP951 P0000 T00001006 FZRANO
PAQH 132134Z AUTO 17008KT 1/4SM FG BKN001 BKN022 OVC090 00/M01 A2938 RMK AO2 FZRANO
PAQH 132125Z AUTO 18009KT 1/2SM FZFG BKN001 OVC090 M01/M01 A2938 RMK AO2 FZRANO
PAQH 132123Z AUTO 18008KT 1SM BR BKN001 OVC090 M01/M01 A2938 RMK AO2 VIS 1/4V5 FZRANO
PAQH 132116Z AUTO 18009KT 2 1/2SM BR BKN001 OVC090 M01/M01 A2938 RMK AO2 VIS 1 1/2V5 FZRANO
PAQH 132106Z AUTO 17009KT 3/4SM BR BKN003 BKN011 OVC090 M01/M01 A2937 RMK AO2 FZRANO
PAQH 132056Z AUTO 18008KT 1/4SM FZFG BKN003 OVC011 M01/M01 A2937 RMK AO2 SLP945 60000 T10061006 53018 FZRANO
PAQH 132044Z AUTO 17007KT 1/4SM FG BKN003 OVC011 00/M01 A2936 RMK AO2 FZRANO
PAQH 132039Z AUTO 16009KT 3/4SM BR OVC003 00/M01 A2936 RMK AO2 VIS 1/4V4 FZRANO
PAQH 132029Z AUTO 16006KT 3SM BR OVC003 00/M01 A2936 RMK AO2 FZRANO
PAQH 132012Z AUTO 17006KT 3/4SM BR OVC003 00/M01 A2935 RMK AO2 FZRANO
PAQH 131956Z AUTO 18008KT 1/4SM FG OVC003 00/M01 A2935 RMK AO2 UPB37E41SNE37 SLP938 P0000 T00001006 FZRANO
PAQH 131954Z AUTO 18008KT 1/4SM FG OVC003 00/M01 A2935 RMK AO2 UPB37E41SNE37 CIG 002V007 P0000 FZRANO
PAQH 131949Z AUTO 19009KT 3/4SM BR OVC003 00/M01 A2934 RMK AO2 UPB37E41SNE37 CIG 002V007 P0000 FZRANO
PAQH 131946Z AUTO 18008KT 1 3/4SM BR OVC003 00/M01 A2934 RMK AO2 UPB37E41SNE37 CIG 002V007 P0000 FZRANO
PAQH 131856Z AUTO 18007KT 9SM -SN OVC005 00/M01 A2933 RMK AO2 SNE18B40 SLP931 P0000 T00001006 FZRANO
PAQH 131824Z AUTO 17007KT 3SM BR OVC003 M01/M01 A2932 RMK AO2 SNE18 P0000 FZRANO
PAQH 131804Z AUTO 17005KT 1 3/4SM -SN BR OVC003 M01/M01 A2932 RMK AO2 P0000 FZRANO
PAQH 131725Z AUTO 20007KT 4SM BR OVC003 M01/M01 A2931 RMK AO2 FZRANO
PAQH 131640Z AUTO 19006KT 8SM BKN005 OVC011 00/M01 A2929 RMK AO2 FZRANO
PAQH 131556Z AUTO 18005KT 10SM FEW004 OVC013 M01/M01 A2928 RMK AO2 UPB00E09SNE00B09E29 SLP915 P0000 T10061011 FZRANO
PAQH 131522Z AUTO 20006KT 8SM -SN FEW004 BKN010 OVC028 M01/M01 A2927 RMK AO2 UPB00E09SNE00B09 P0000 FZRANO
PAQH 131456Z AUTO 21007KT 6SM -SN BR FEW004 BKN023 OVC030 00/M01 A2927 RMK AO2 UPB38E44SNB09E38B44 SLP912 P0001 60001 T00001011 53009 FZRANO
PAQH 131430Z AUTO 20007KT 8SM -SN FEW004 SCT016 OVC025 M01/M01 A2927 RMK AO2 SNB09 P0000 FZRANO
PAQH 131419Z AUTO 20006KT 9SM -SN BKN025 OVC031 M01/M01 A2926 RMK AO2 SNB09 P0000 FZRANO
PAQH 131256Z AUTO 14003KT 10SM OVC031 M02/M03 A2925 RMK AO2 SLP904 T10221028 FZRANO
PAQH 131056Z AUTO 03003KT 10SM BKN039 OVC070 M03/M03 A2924 RMK AO2 SLP903 T10281033 FZRANO
PAQH 130956Z AUTO 36003KT 10SM SCT045 OVC075 M03/M03 A2923 RMK AO2 SNE0857 SLP899 T10281033 FZRANO
PAQH 130856Z AUTO 02004KT 9SM -SN FEW028 SCT043 BKN055 M03/M03 A2923 RMK AO2 SNB36 SLP897 P0000 60000 T10281033 400111028 53008 FZRANO